sensor_id;sensor_type;location;lat;lon;timestamp;pressure;altitude;pressure_sealevel;temperature;humidity
83273;BME280;73177;51.584;5.188;2024-02-21T00:01:47;102229.78;;;12.94;73.88
83273;BME280;73177;51.584;5.188;2024-02-21T00:04:12;102225.09;;;13.08;73.84
83273;BME280;73177;51.584;5.188;2024-02-21T00:06:37;102234.00;;;13.01;74.15
83273;BME280;73177;51.584;5.188;2024-02-21T00:09:03;102224.47;;;12.96;73.80
83273;BME280;73177;51.584;5.188;2024-02-21T00:11:28;102226.69;;;12.74;74.40
83273;BME280;73177;51.584;5.188;2024-02-21T00:13:54;102223.97;;;12.78;74.34
83273;BME280;73177;51.584;5.188;2024-02-21T00:16:19;102221.66;;;12.62;74.27
83273;BME280;73177;51.584;5.188;2024-02-21T00:18:44;102223.00;;;13.22;72.96
83273;BME280;73177;51.584;5.188;2024-02-21T00:21:09;102216.28;;;13.09;72.55
83273;BME280;73177;51.584;5.188;2024-02-21T00:23:40;102226.50;;;12.81;73.30
83273;BME280;73177;51.584;5.188;2024-02-21T00:26:05;102204.19;;;12.56;74.40
83273;BME280;73177;51.584;5.188;2024-02-21T00:28:31;102204.84;;;13.10;72.67
83273;BME280;73177;51.584;5.188;2024-02-21T00:30:56;102181.97;;;13.49;71.19
83273;BME280;73177;51.584;5.188;2024-02-21T00:33:21;102187.56;;;12.96;72.37
83273;BME280;73177;51.584;5.188;2024-02-21T00:35:46;102184.31;;;12.84;74.19
83273;BME280;73177;51.584;5.188;2024-02-21T00:38:12;102173.00;;;12.81;73.53
83273;BME280;73177;51.584;5.188;2024-02-21T00:40:37;102173.81;;;12.83;73.23
83273;BME280;73177;51.584;5.188;2024-02-21T00:43:02;102165.00;;;13.24;71.87
83273;BME280;73177;51.584;5.188;2024-02-21T00:45:28;102160.78;;;13.15;72.54
83273;BME280;73177;51.584;5.188;2024-02-21T00:47:53;102161.25;;;13.69;70.07
83273;BME280;73177;51.584;5.188;2024-02-21T00:50:18;102174.59;;;12.86;72.39
83273;BME280;73177;51.584;5.188;2024-02-21T00:52:44;102168.53;;;13.23;71.91
83273;BME280;73177;51.584;5.188;2024-02-21T00:55:10;102175.09;;;12.64;72.83
83273;BME280;73177;51.584;5.188;2024-02-21T00:57:35;102167.25;;;12.61;73.70
83273;BME280;73177;51.584;5.188;2024-02-21T01:00:02;102160.59;;;12.84;73.31
83273;BME280;73177;51.584;5.188;2024-02-21T01:02:27;102157.81;;;12.90;73.48
83273;BME280;73177;51.584;5.188;2024-02-21T01:04:53;102138.16;;;13.07;73.35
83273;BME280;73177;51.584;5.188;2024-02-21T01:07:18;102138.28;;;13.01;73.05
83273;BME280;73177;51.584;5.188;2024-02-21T01:09:43;102145.63;;;13.25;71.91
83273;BME280;73177;51.584;5.188;2024-02-21T01:12:08;102138.66;;;12.84;72.32
83273;BME280;73177;51.584;5.188;2024-02-21T01:14:34;102146.84;;;12.72;73.12
83273;BME280;73177;51.584;5.188;2024-02-21T01:16:59;102147.69;;;12.72;73.39
83273;BME280;73177;51.584;5.188;2024-02-21T01:19:24;102130.38;;;12.62;73.72
83273;BME280;73177;51.584;5.188;2024-02-21T01:21:50;102130.50;;;12.96;72.83
83273;BME280;73177;51.584;5.188;2024-02-21T01:24:15;102129.81;;;13.25;72.18
83273;BME280;73177;51.584;5.188;2024-02-21T01:26:40;102131.28;;;13.00;72.75
83273;BME280;73177;51.584;5.188;2024-02-21T01:29:06;102132.25;;;12.96;71.76
83273;BME280;73177;51.584;5.188;2024-02-21T01:31:31;102128.56;;;13.03;72.12
83273;BME280;73177;51.584;5.188;2024-02-21T01:33:56;102125.53;;;12.82;72.30
83273;BME280;73177;51.584;5.188;2024-02-21T01:36:23;102124.13;;;13.06;71.78
83273;BME280;73177;51.584;5.188;2024-02-21T01:38:48;102124.91;;;12.71;72.86
83273;BME280;73177;51.584;5.188;2024-02-21T01:41:13;102126.16;;;12.94;72.72
83273;BME280;73177;51.584;5.188;2024-02-21T01:43:39;102117.25;;;13.36;71.13
83273;BME280;73177;51.584;5.188;2024-02-21T01:46:04;102117.53;;;13.61;69.60
83273;BME280;73177;51.584;5.188;2024-02-21T01:48:29;102107.88;;;13.24;70.73
83273;BME280;73177;51.584;5.188;2024-02-21T01:50:55;102125.38;;;13.28;69.94
83273;BME280;73177;51.584;5.188;2024-02-21T01:53:23;102117.00;;;12.71;72.08
83273;BME280;73177;51.584;5.188;2024-02-21T01:55:48;102131.81;;;13.15;71.23
83273;BME280;73177;51.584;5.188;2024-02-21T01:58:14;102133.66;;;13.48;70.13
83273;BME280;73177;51.584;5.188;2024-02-21T02:00:44;102118.00;;;12.66;71.71
83273;BME280;73177;51.584;5.188;2024-02-21T02:03:11;102113.25;;;13.21;70.37
83273;BME280;73177;51.584;5.188;2024-02-21T02:05:44;102117.16;;;13.04;71.44
83273;BME280;73177;51.584;5.188;2024-02-21T02:08:10;102102.28;;;13.01;71.47
83273;BME280;73177;51.584;5.188;2024-02-21T02:10:36;102097.84;;;13.03;70.98
83273;BME280;73177;51.584;5.188;2024-02-21T02:13:02;102100.41;;;13.05;71.39
83273;BME280;73177;51.584;5.188;2024-02-21T02:15:37;102094.66;;;12.89;71.29
83273;BME280;73177;51.584;5.188;2024-02-21T02:18:03;102091.72;;;12.64;72.59
83273;BME280;73177;51.584;5.188;2024-02-21T02:20:29;102084.63;;;12.66;72.10
83273;BME280;73177;51.584;5.188;2024-02-21T02:22:54;102071.16;;;12.80;71.76
83273;BME280;73177;51.584;5.188;2024-02-21T02:25:19;102066.97;;;12.71;72.06
83273;BME280;73177;51.584;5.188;2024-02-21T02:27:45;102060.47;;;12.48;72.45
83273;BME280;73177;51.584;5.188;2024-02-21T02:30:11;102065.41;;;13.00;70.95
83273;BME280;73177;51.584;5.188;2024-02-21T02:32:36;102057.84;;;12.48;72.43
83273;BME280;73177;51.584;5.188;2024-02-21T02:35:02;102058.91;;;13.49;69.90
83273;BME280;73177;51.584;5.188;2024-02-21T02:37:27;102066.28;;;13.00;70.65
83273;BME280;73177;51.584;5.188;2024-02-21T02:39:53;102059.75;;;13.51;69.88
83273;BME280;73177;51.584;5.188;2024-02-21T02:42:18;102061.94;;;12.98;71.07
83273;BME280;73177;51.584;5.188;2024-02-21T02:44:43;102064.38;;;13.07;70.71
83273;BME280;73177;51.584;5.188;2024-02-21T02:47:09;102041.84;;;13.30;69.81
83273;BME280;73177;51.584;5.188;2024-02-21T02:49:34;102056.84;;;13.27;70.23
83273;BME280;73177;51.584;5.188;2024-02-21T02:51:59;102048.66;;;13.04;70.43
83273;BME280;73177;51.584;5.188;2024-02-21T02:54:25;102047.06;;;13.32;70.22
83273;BME280;73177;51.584;5.188;2024-02-21T02:56:50;102037.25;;;12.66;71.39
83273;BME280;73177;51.584;5.188;2024-02-21T02:59:15;102040.97;;;12.56;72.57
83273;BME280;73177;51.584;5.188;2024-02-21T03:01:41;102024.28;;;12.94;71.47
83273;BME280;73177;51.584;5.188;2024-02-21T03:04:06;102036.75;;;12.86;71.68
83273;BME280;73177;51.584;5.188;2024-02-21T03:06:31;102033.88;;;12.97;70.83
83273;BME280;73177;51.584;5.188;2024-02-21T03:08:57;102041.91;;;12.90;70.87
83273;BME280;73177;51.584;5.188;2024-02-21T03:11:22;102037.34;;;12.62;72.74
83273;BME280;73177;51.584;5.188;2024-02-21T03:13:54;102031.97;;;13.03;71.16
83273;BME280;73177;51.584;5.188;2024-02-21T03:16:19;102030.13;;;12.70;72.26
83273;BME280;73177;51.584;5.188;2024-02-21T03:18:45;102017.56;;;13.18;71.46
83273;BME280;73177;51.584;5.188;2024-02-21T03:21:10;102016.69;;;13.51;68.74
83273;BME280;73177;51.584;5.188;2024-02-21T03:23:35;102008.03;;;13.46;69.96
83273;BME280;73177;51.584;5.188;2024-02-21T03:26:01;102008.19;;;13.40;70.13
83273;BME280;73177;51.584;5.188;2024-02-21T03:28:27;101999.16;;;13.81;68.03
83273;BME280;73177;51.584;5.188;2024-02-21T03:30:52;101999.66;;;12.95;70.33
83273;BME280;73177;51.584;5.188;2024-02-21T03:33:18;102001.91;;;13.76;68.91
83273;BME280;73177;51.584;5.188;2024-02-21T03:35:45;101990.84;;;13.93;66.74
83273;BME280;73177;51.584;5.188;2024-02-21T03:38:10;101987.13;;;13.71;68.54
83273;BME280;73177;51.584;5.188;2024-02-21T03:40:35;101976.13;;;13.55;68.76
83273;BME280;73177;51.584;5.188;2024-02-21T03:43:01;101978.53;;;13.32;69.70
83273;BME280;73177;51.584;5.188;2024-02-21T03:45:26;101981.78;;;13.09;70.51
83273;BME280;73177;51.584;5.188;2024-02-21T03:47:51;101961.13;;;13.88;67.71
83273;BME280;73177;51.584;5.188;2024-02-21T03:50:17;101965.41;;;13.30;69.36
83273;BME280;73177;51.584;5.188;2024-02-21T03:52:42;101967.47;;;13.18;70.32
83273;BME280;73177;51.584;5.188;2024-02-21T03:55:07;101964.03;;;12.80;72.12
83273;BME280;73177;51.584;5.188;2024-02-21T03:57:33;101970.38;;;12.73;71.76
83273;BME280;73177;51.584;5.188;2024-02-21T03:59:58;101961.69;;;13.37;70.44
83273;BME280;73177;51.584;5.188;2024-02-21T04:02:23;101957.19;;;12.73;71.31
83273;BME280;73177;51.584;5.188;2024-02-21T04:04:49;101966.59;;;12.83;72.42
83273;BME280;73177;51.584;5.188;2024-02-21T04:07:14;101977.94;;;12.87;71.71
83273;BME280;73177;51.584;5.188;2024-02-21T04:09:40;101975.25;;;12.52;72.54
83273;BME280;73177;51.584;5.188;2024-02-21T04:12:05;101978.09;;;12.44;73.69
83273;BME280;73177;51.584;5.188;2024-02-21T04:14:31;101979.59;;;12.56;73.80
83273;BME280;73177;51.584;5.188;2024-02-21T04:16:56;101974.75;;;12.73;72.82
83273;BME280;73177;51.584;5.188;2024-02-21T04:19:23;101974.31;;;12.56;73.34
83273;BME280;73177;51.584;5.188;2024-02-21T04:21:48;101966.66;;;12.45;73.16
83273;BME280;73177;51.584;5.188;2024-02-21T04:24:14;101964.53;;;12.96;71.77
83273;BME280;73177;51.584;5.188;2024-02-21T04:26:39;101956.44;;;13.02;71.38
83273;BME280;73177;51.584;5.188;2024-02-21T04:29:05;101962.69;;;12.64;72.25
83273;BME280;73177;51.584;5.188;2024-02-21T04:31:32;101958.13;;;13.38;70.26
83273;BME280;73177;51.584;5.188;2024-02-21T04:33:57;101963.28;;;12.75;71.49
83273;BME280;73177;51.584;5.188;2024-02-21T04:36:23;101959.56;;;12.49;72.96
83273;BME280;73177;51.584;5.188;2024-02-21T04:38:49;101961.03;;;12.60;73.02
83273;BME280;73177;51.584;5.188;2024-02-21T04:41:15;101960.97;;;12.97;71.71
83273;BME280;73177;51.584;5.188;2024-02-21T04:43:40;101952.44;;;12.52;72.33
83273;BME280;73177;51.584;5.188;2024-02-21T04:46:06;101960.44;;;13.50;70.99
83273;BME280;73177;51.584;5.188;2024-02-21T04:48:31;101947.66;;;12.68;72.04
83273;BME280;73177;51.584;5.188;2024-02-21T04:50:56;101945.44;;;13.20;71.49
83273;BME280;73177;51.584;5.188;2024-02-21T04:53:22;101947.50;;;13.41;70.35
83273;BME280;73177;51.584;5.188;2024-02-21T04:55:47;101944.38;;;12.94;70.10
83273;BME280;73177;51.584;5.188;2024-02-21T04:58:12;101943.25;;;13.36;69.68
83273;BME280;73177;51.584;5.188;2024-02-21T05:00:37;101936.22;;;13.36;69.32
83273;BME280;73177;51.584;5.188;2024-02-21T05:03:03;101933.53;;;12.72;71.67
83273;BME280;73177;51.584;5.188;2024-02-21T05:05:28;101933.34;;;13.13;70.99
83273;BME280;73177;51.584;5.188;2024-02-21T05:07:54;101925.00;;;13.30;70.52
83273;BME280;73177;51.584;5.188;2024-02-21T05:10:19;101925.50;;;13.12;71.27
83273;BME280;73177;51.584;5.188;2024-02-21T05:12:45;101929.63;;;13.22;70.08
83273;BME280;73177;51.584;5.188;2024-02-21T05:15:11;101921.69;;;12.88;71.41
83273;BME280;73177;51.584;5.188;2024-02-21T05:17:36;101906.38;;;13.04;70.71
83273;BME280;73177;51.584;5.188;2024-02-21T05:20:01;101901.88;;;13.39;69.79
83273;BME280;73177;51.584;5.188;2024-02-21T05:22:27;101898.38;;;13.08;70.46
83273;BME280;73177;51.584;5.188;2024-02-21T05:24:52;101898.56;;;13.62;68.42
83273;BME280;73177;51.584;5.188;2024-02-21T05:27:17;101883.06;;;13.81;67.56
83273;BME280;73177;51.584;5.188;2024-02-21T05:29:43;101889.31;;;12.84;70.81
83273;BME280;73177;51.584;5.188;2024-02-21T05:32:08;101882.75;;;13.31;70.01
83273;BME280;73177;51.584;5.188;2024-02-21T05:34:33;101884.19;;;13.12;69.81
83273;BME280;73177;51.584;5.188;2024-02-21T05:36:59;101887.34;;;13.55;68.70
83273;BME280;73177;51.584;5.188;2024-02-21T05:39:26;101878.75;;;13.18;69.70
83273;BME280;73177;51.584;5.188;2024-02-21T05:41:51;101870.72;;;13.52;68.67
83273;BME280;73177;51.584;5.188;2024-02-21T05:44:18;101877.00;;;12.85;70.50
83273;BME280;73177;51.584;5.188;2024-02-21T05:46:44;101872.31;;;13.28;69.51
83273;BME280;73177;51.584;5.188;2024-02-21T05:49:09;101865.31;;;12.95;70.30
83273;BME280;73177;51.584;5.188;2024-02-21T05:51:34;101871.28;;;13.63;68.85
83273;BME280;73177;51.584;5.188;2024-02-21T05:54:00;101865.41;;;12.92;69.81
83273;BME280;73177;51.584;5.188;2024-02-21T05:56:25;101862.94;;;13.49;68.94
83273;BME280;73177;51.584;5.188;2024-02-21T05:58:51;101867.22;;;13.22;68.86
83273;BME280;73177;51.584;5.188;2024-02-21T06:01:16;101862.19;;;12.47;71.76
83273;BME280;73177;51.584;5.188;2024-02-21T06:03:43;101858.28;;;13.28;69.56
83273;BME280;73177;51.584;5.188;2024-02-21T06:06:08;101851.44;;;13.21;70.01
83273;BME280;73177;51.584;5.188;2024-02-21T06:08:33;101841.84;;;12.86;70.66
83273;BME280;73177;51.584;5.188;2024-02-21T06:10:58;101827.78;;;12.87;71.19
83273;BME280;73177;51.584;5.188;2024-02-21T06:13:24;101827.38;;;13.33;69.28
83273;BME280;73177;51.584;5.188;2024-02-21T06:15:50;101825.84;;;13.83;67.80
83273;BME280;73177;51.584;5.188;2024-02-21T06:18:17;101827.38;;;13.33;68.94
83273;BME280;73177;51.584;5.188;2024-02-21T06:20:42;101831.03;;;13.56;68.01
83273;BME280;73177;51.584;5.188;2024-02-21T06:23:08;101835.97;;;13.39;68.93
83273;BME280;73177;51.584;5.188;2024-02-21T06:25:34;101817.69;;;13.03;69.83
83273;BME280;73177;51.584;5.188;2024-02-21T06:27:59;101826.09;;;13.17;68.89
83273;BME280;73177;51.584;5.188;2024-02-21T06:30:25;101836.88;;;13.38;69.01
83273;BME280;73177;51.584;5.188;2024-02-21T06:32:50;101838.13;;;13.25;69.25
83273;BME280;73177;51.584;5.188;2024-02-21T06:35:15;101835.44;;;13.28;68.95
83273;BME280;73177;51.584;5.188;2024-02-21T06:37:42;101826.09;;;13.46;68.32
83273;BME280;73177;51.584;5.188;2024-02-21T06:40:07;101832.38;;;13.13;69.59
83273;BME280;73177;51.584;5.188;2024-02-21T06:42:33;101836.53;;;13.20;68.73
83273;BME280;73177;51.584;5.188;2024-02-21T06:44:58;101830.91;;;13.32;69.20
83273;BME280;73177;51.584;5.188;2024-02-21T06:47:23;101842.91;;;13.13;69.32
83273;BME280;73177;51.584;5.188;2024-02-21T06:49:50;101842.78;;;12.85;70.55
83273;BME280;73177;51.584;5.188;2024-02-21T06:52:18;101838.81;;;13.01;70.49
83273;BME280;73177;51.584;5.188;2024-02-21T06:54:46;101842.03;;;13.12;69.98
83273;BME280;73177;51.584;5.188;2024-02-21T06:57:12;101824.47;;;12.80;69.91
83273;BME280;73177;51.584;5.188;2024-02-21T06:59:38;101830.16;;;13.28;69.69
83273;BME280;73177;51.584;5.188;2024-02-21T07:02:03;101818.94;;;13.22;69.42
83273;BME280;73177;51.584;5.188;2024-02-21T07:04:28;101818.94;;;13.20;69.41
83273;BME280;73177;51.584;5.188;2024-02-21T07:06:54;101823.75;;;13.06;69.57
83273;BME280;73177;51.584;5.188;2024-02-21T07:09:20;101816.44;;;13.46;68.57
83273;BME280;73177;51.584;5.188;2024-02-21T07:11:45;101813.94;;;13.42;68.00
83273;BME280;73177;51.584;5.188;2024-02-21T07:14:10;101810.44;;;13.11;68.75
83273;BME280;73177;51.584;5.188;2024-02-21T07:16:36;101817.63;;;13.64;67.42
83273;BME280;73177;51.584;5.188;2024-02-21T07:19:01;101809.28;;;13.50;67.58
83273;BME280;73177;51.584;5.188;2024-02-21T07:21:27;101816.03;;;13.86;66.11
83273;BME280;73177;51.584;5.188;2024-02-21T07:23:52;101814.00;;;13.68;66.83
83273;BME280;73177;51.584;5.188;2024-02-21T07:26:18;101804.53;;;13.61;67.41
83273;BME280;73177;51.584;5.188;2024-02-21T07:28:43;101799.53;;;13.52;68.11
83273;BME280;73177;51.584;5.188;2024-02-21T07:31:09;101796.19;;;14.28;65.29
83273;BME280;73177;51.584;5.188;2024-02-21T07:33:34;101792.72;;;13.46;67.09
83273;BME280;73177;51.584;5.188;2024-02-21T07:36:01;101792.06;;;13.38;67.63
83273;BME280;73177;51.584;5.188;2024-02-21T07:38:26;101789.63;;;13.32;68.19
83273;BME280;73177;51.584;5.188;2024-02-21T07:40:52;101778.72;;;13.44;67.30
83273;BME280;73177;51.584;5.188;2024-02-21T07:43:17;101771.19;;;13.60;67.79
83273;BME280;73177;51.584;5.188;2024-02-21T07:45:42;101763.25;;;13.32;68.17
83273;BME280;73177;51.584;5.188;2024-02-21T07:48:08;101750.53;;;13.45;67.70
83273;BME280;73177;51.584;5.188;2024-02-21T07:50:33;101762.47;;;13.29;68.13
83273;BME280;73177;51.584;5.188;2024-02-21T07:52:58;101749.41;;;13.53;67.58
83273;BME280;73177;51.584;5.188;2024-02-21T07:55:24;101736.81;;;13.05;69.21
83273;BME280;73177;51.584;5.188;2024-02-21T07:57:49;101740.19;;;13.39;68.24
83273;BME280;73177;51.584;5.188;2024-02-21T08:00:15;101760.97;;;13.22;69.27
83273;BME280;73177;51.584;5.188;2024-02-21T08:02:45;101747.59;;;13.82;66.98
83273;BME280;73177;51.584;5.188;2024-02-21T08:05:11;101738.06;;;13.24;67.86
83273;BME280;73177;51.584;5.188;2024-02-21T08:07:37;101745.94;;;13.79;67.04
83273;BME280;73177;51.584;5.188;2024-02-21T08:10:03;101741.69;;;13.47;67.56
83273;BME280;73177;51.584;5.188;2024-02-21T08:12:29;101729.00;;;13.86;66.54
83273;BME280;73177;51.584;5.188;2024-02-21T08:14:54;101715.72;;;13.89;66.05
83273;BME280;73177;51.584;5.188;2024-02-21T08:17:19;101711.00;;;13.45;67.83
83273;BME280;73177;51.584;5.188;2024-02-21T08:19:44;101707.38;;;13.21;68.59
83273;BME280;73177;51.584;5.188;2024-02-21T08:22:10;101718.22;;;13.40;68.26
83273;BME280;73177;51.584;5.188;2024-02-21T08:24:35;101713.78;;;13.40;68.15
83273;BME280;73177;51.584;5.188;2024-02-21T08:27:00;101706.53;;;14.01;66.52
83273;BME280;73177;51.584;5.188;2024-02-21T08:29:26;101694.22;;;13.47;67.20
83273;BME280;73177;51.584;5.188;2024-02-21T08:31:51;101687.38;;;13.14;68.63
83273;BME280;73177;51.584;5.188;2024-02-21T08:34:18;101687.59;;;13.88;67.26
83273;BME280;73177;51.584;5.188;2024-02-21T08:36:43;101676.88;;;13.93;66.25
83273;BME280;73177;51.584;5.188;2024-02-21T08:39:08;101688.53;;;13.86;67.25
83273;BME280;73177;51.584;5.188;2024-02-21T08:41:34;101683.75;;;14.48;64.31
83273;BME280;73177;51.584;5.188;2024-02-21T08:44:00;101677.38;;;14.28;65.24
83273;BME280;73177;51.584;5.188;2024-02-21T08:46:26;101675.88;;;13.97;65.82
83273;BME280;73177;51.584;5.188;2024-02-21T08:48:51;101669.66;;;13.73;66.78
83273;BME280;73177;51.584;5.188;2024-02-21T08:51:17;101664.63;;;14.16;66.24
83273;BME280;73177;51.584;5.188;2024-02-21T08:53:46;101665.31;;;14.21;66.18
83273;BME280;73177;51.584;5.188;2024-02-21T08:56:11;101653.38;;;14.36;64.66
83273;BME280;73177;51.584;5.188;2024-02-21T08:58:37;101651.69;;;14.09;65.25
83273;BME280;73177;51.584;5.188;2024-02-21T09:01:09;101657.00;;;13.30;68.50
83273;BME280;73177;51.584;5.188;2024-02-21T09:03:38;101655.91;;;13.90;66.28
83273;BME280;73177;51.584;5.188;2024-02-21T09:06:07;101646.88;;;13.71;67.85
83273;BME280;73177;51.584;5.188;2024-02-21T09:08:33;101643.59;;;14.13;65.67
83273;BME280;73177;51.584;5.188;2024-02-21T09:11:02;101644.03;;;13.50;68.43
83273;BME280;73177;51.584;5.188;2024-02-21T09:13:28;101639.44;;;13.82;67.34
83273;BME280;73177;51.584;5.188;2024-02-21T09:15:53;101637.25;;;14.44;65.60
83273;BME280;73177;51.584;5.188;2024-02-21T09:18:19;101628.59;;;13.40;69.12
83273;BME280;73177;51.584;5.188;2024-02-21T09:20:44;101626.41;;;13.52;69.16
83273;BME280;73177;51.584;5.188;2024-02-21T09:23:10;101626.56;;;13.99;67.47
83273;BME280;73177;51.584;5.188;2024-02-21T09:25:35;101627.50;;;13.72;69.55
83273;BME280;73177;51.584;5.188;2024-02-21T09:28:02;101631.00;;;13.46;70.48
83273;BME280;73177;51.584;5.188;2024-02-21T09:30:28;101610.03;;;13.94;69.44
83273;BME280;73177;51.584;5.188;2024-02-21T09:32:53;101614.53;;;13.90;70.46
83273;BME280;73177;51.584;5.188;2024-02-21T09:35:18;101600.81;;;13.81;70.55
83273;BME280;73177;51.584;5.188;2024-02-21T09:37:43;101610.19;;;13.89;70.75
83273;BME280;73177;51.584;5.188;2024-02-21T09:40:09;101594.44;;;13.62;71.77
83273;BME280;73177;51.584;5.188;2024-02-21T09:42:39;101577.75;;;13.10;72.84
83273;BME280;73177;51.584;5.188;2024-02-21T09:45:20;101577.34;;;12.95;73.87
83273;BME280;73177;51.584;5.188;2024-02-21T09:47:59;101575.88;;;13.65;72.28
83273;BME280;73177;51.584;5.188;2024-02-21T09:50:30;101563.31;;;12.94;73.48
83273;BME280;73177;51.584;5.188;2024-02-21T09:52:57;101558.41;;;13.36;73.68
83273;BME280;73177;51.584;5.188;2024-02-21T09:55:25;101548.63;;;13.13;73.91
83273;BME280;73177;51.584;5.188;2024-02-21T09:57:53;101532.41;;;13.76;71.20
83273;BME280;73177;51.584;5.188;2024-02-21T10:00:18;101530.13;;;14.13;69.63
83273;BME280;73177;51.584;5.188;2024-02-21T10:02:48;101518.88;;;13.85;70.06
83273;BME280;73177;51.584;5.188;2024-02-21T10:05:14;101528.91;;;13.76;71.27
83273;BME280;73177;51.584;5.188;2024-02-21T10:07:39;101516.00;;;14.14;70.13
83273;BME280;73177;51.584;5.188;2024-02-21T10:10:05;101512.56;;;14.80;66.43
83273;BME280;73177;51.584;5.188;2024-02-21T10:12:31;101500.78;;;15.09;65.50
83273;BME280;73177;51.584;5.188;2024-02-21T10:15:00;101512.06;;;14.26;67.67
83273;BME280;73177;51.584;5.188;2024-02-21T10:17:25;101497.75;;;13.62;68.92
83273;BME280;73177;51.584;5.188;2024-02-21T10:19:51;101492.00;;;13.99;69.14
83273;BME280;73177;51.584;5.188;2024-02-21T10:22:17;101471.59;;;14.49;66.78
83273;BME280;73177;51.584;5.188;2024-02-21T10:24:42;101484.22;;;13.71;68.92
83273;BME280;73177;51.584;5.188;2024-02-21T10:27:09;101458.84;;;14.13;68.72
83273;BME280;73177;51.584;5.188;2024-02-21T10:29:38;101456.97;;;13.71;68.32
83273;BME280;73177;51.584;5.188;2024-02-21T10:32:11;101437.72;;;14.15;67.96
83273;BME280;73177;51.584;5.188;2024-02-21T10:34:38;101415.25;;;14.48;65.78
83273;BME280;73177;51.584;5.188;2024-02-21T10:37:07;101402.66;;;15.17;63.29
83273;BME280;73177;51.584;5.188;2024-02-21T10:39:37;101389.47;;;14.55;64.66
83273;BME280;73177;51.584;5.188;2024-02-21T10:42:03;101383.72;;;14.22;65.85
83273;BME280;73177;51.584;5.188;2024-02-21T10:44:29;101395.91;;;14.69;65.09
83273;BME280;73177;51.584;5.188;2024-02-21T10:46:56;101393.09;;;14.72;65.04
83273;BME280;73177;51.584;5.188;2024-02-21T10:49:25;101408.06;;;14.52;65.02
83273;BME280;73177;51.584;5.188;2024-02-21T10:51:54;101404.59;;;14.51;66.47
83273;BME280;73177;51.584;5.188;2024-02-21T10:54:24;101411.94;;;14.65;65.28
83273;BME280;73177;51.584;5.188;2024-02-21T10:56:51;101412.16;;;14.59;65.56
83273;BME280;73177;51.584;5.188;2024-02-21T10:59:18;101414.19;;;13.86;67.23
83273;BME280;73177;51.584;5.188;2024-02-21T11:01:45;101401.84;;;14.09;65.88
83273;BME280;73177;51.584;5.188;2024-02-21T11:04:10;101411.84;;;14.01;67.38
83273;BME280;73177;51.584;5.188;2024-02-21T11:06:38;101403.50;;;14.35;66.15
83273;BME280;73177;51.584;5.188;2024-02-21T11:09:07;101400.06;;;14.95;63.96
83273;BME280;73177;51.584;5.188;2024-02-21T11:11:43;101386.72;;;14.98;65.02
83273;BME280;73177;51.584;5.188;2024-02-21T11:14:17;101384.19;;;14.75;64.53
83273;BME280;73177;51.584;5.188;2024-02-21T11:16:43;101369.72;;;14.83;65.10
83273;BME280;73177;51.584;5.188;2024-02-21T11:19:09;101373.81;;;14.70;64.63
83273;BME280;73177;51.584;5.188;2024-02-21T11:21:36;101351.19;;;15.05;64.77
83273;BME280;73177;51.584;5.188;2024-02-21T11:24:05;101351.56;;;15.92;61.70
83273;BME280;73177;51.584;5.188;2024-02-21T11:26:32;101358.78;;;15.31;63.35
83273;BME280;73177;51.584;5.188;2024-02-21T11:29:01;101363.66;;;15.01;63.19
83273;BME280;73177;51.584;5.188;2024-02-21T11:31:38;101357.78;;;14.95;63.44
83273;BME280;73177;51.584;5.188;2024-02-21T11:34:05;101358.44;;;15.00;62.58
83273;BME280;73177;51.584;5.188;2024-02-21T11:36:33;101348.28;;;14.51;64.40
83273;BME280;73177;51.584;5.188;2024-02-21T11:39:04;101344.22;;;15.02;64.13
83273;BME280;73177;51.584;5.188;2024-02-21T11:41:31;101318.56;;;15.43;62.10
83273;BME280;73177;51.584;5.188;2024-02-21T11:43:56;101305.25;;;16.01;60.04
83273;BME280;73177;51.584;5.188;2024-02-21T11:46:22;101280.19;;;16.25;59.94
83273;BME280;73177;51.584;5.188;2024-02-21T11:48:48;101277.91;;;16.53;58.38
83273;BME280;73177;51.584;5.188;2024-02-21T11:51:25;101275.84;;;16.75;59.34
83273;BME280;73177;51.584;5.188;2024-02-21T11:53:53;101276.16;;;17.02;57.67
83273;BME280;73177;51.584;5.188;2024-02-21T11:56:19;101260.75;;;16.26;59.52
83273;BME280;73177;51.584;5.188;2024-02-21T11:58:46;101243.28;;;16.05;58.49
83273;BME280;73177;51.584;5.188;2024-02-21T12:01:13;101241.72;;;16.18;58.74
83273;BME280;73177;51.584;5.188;2024-02-21T12:03:38;101236.19;;;16.05;59.41
83273;BME280;73177;51.584;5.188;2024-02-21T12:06:06;101227.16;;;16.26;59.34
83273;BME280;73177;51.584;5.188;2024-02-21T12:08:41;101214.84;;;16.60;57.61
83273;BME280;73177;51.584;5.188;2024-02-21T12:11:19;101204.56;;;16.36;58.90
83273;BME280;73177;51.584;5.188;2024-02-21T12:13:45;101200.53;;;16.29;58.88
83273;BME280;73177;51.584;5.188;2024-02-21T12:16:10;101203.19;;;16.12;59.72
83273;BME280;73177;51.584;5.188;2024-02-21T12:18:36;101197.25;;;16.41;59.19
83273;BME280;73177;51.584;5.188;2024-02-21T12:21:01;101198.50;;;16.17;59.58
83273;BME280;73177;51.584;5.188;2024-02-21T12:23:27;101183.28;;;15.15;60.83
83273;BME280;73177;51.584;5.188;2024-02-21T12:25:52;101190.22;;;15.18;61.42
83273;BME280;73177;51.584;5.188;2024-02-21T12:28:20;101184.00;;;15.00;62.34
83273;BME280;73177;51.584;5.188;2024-02-21T12:30:47;101174.44;;;14.79;62.88
83273;BME280;73177;51.584;5.188;2024-02-21T12:33:12;101174.88;;;15.07;62.42
83273;BME280;73177;51.584;5.188;2024-02-21T12:35:39;101160.66;;;15.81;59.61
83273;BME280;73177;51.584;5.188;2024-02-21T12:38:05;101147.13;;;15.70;59.74
83273;BME280;73177;51.584;5.188;2024-02-21T12:40:30;101128.91;;;15.98;59.31
83273;BME280;73177;51.584;5.188;2024-02-21T12:42:59;101103.25;;;16.16;58.71
83273;BME280;73177;51.584;5.188;2024-02-21T12:45:27;101088.84;;;15.19;62.12